sensor_id;sensor_type;location;lat;lon;timestamp;P1;durP1;ratioP1;P2;durP2;ratioP2
10347;SDS011;5220;43.192;23.284;2022-08-19T00:00:04;3.75;;;3.30;;
10347;SDS011;5220;43.192;23.284;2022-08-19T00:02:33;4.68;;;3.65;;
10347;SDS011;5220;43.192;23.284;2022-08-19T00:05:07;4.55;;;3.45;;
10347;SDS011;5220;43.192;23.284;2022-08-19T00:07:42;6.13;;;3.67;;
10347;SDS011;5220;43.192;23.284;2022-08-19T00:10:10;3.90;;;3.60;;
10347;SDS011;5220;43.192;23.284;2022-08-19T00:12:39;4.95;;;3.72;;
10347;SDS011;5220;43.192;23.284;2022-08-19T00:15:07;3.70;;;3.40;;
10347;SDS011;5220;43.192;23.284;2022-08-19T00:17:37;3.70;;;3.33;;
10347;SDS011;5220;43.192;23.284;2022-08-19T00:20:06;4.40;;;3.60;;
10347;SDS011;5220;43.192;23.284;2022-08-19T00:22:34;3.97;;;3.67;;
10347;SDS011;5220;43.192;23.284;2022-08-19T00:25:02;5.13;;;3.25;;
10347;SDS011;5220;43.192;23.284;2022-08-19T00:27:32;5.15;;;3.80;;
10347;SDS011;5220;43.192;23.284;2022-08-19T00:30:02;8.95;;;3.58;;
10347;SDS011;5220;43.192;23.284;2022-08-19T00:32:30;6.60;;;4.20;;
10347;SDS011;5220;43.192;23.284;2022-08-19T00:34:59;3.65;;;3.40;;
10347;SDS011;5220;43.192;23.284;2022-08-19T00:37:26;5.10;;;3.70;;
10347;SDS011;5220;43.192;23.284;2022-08-19T00:43:20;3.97;;;3.22;;
10347;SDS011;5220;43.192;23.284;2022-08-19T00:45:48;3.90;;;3.60;;
10347;SDS011;5220;43.192;23.284;2022-08-19T00:48:16;5.95;;;3.88;;
10347;SDS011;5220;43.192;23.284;2022-08-19T00:50:56;4.15;;;3.72;;
10347;SDS011;5220;43.192;23.284;2022-08-19T00:53:23;4.88;;;3.35;;
10347;SDS011;5220;43.192;23.284;2022-08-19T00:55:54;3.97;;;3.38;;
10347;SDS011;5220;43.192;23.284;2022-08-19T00:58:24;5.03;;;3.58;;
10347;SDS011;5220;43.192;23.284;2022-08-19T01:00:56;5.05;;;4.00;;
10347;SDS011;5220;43.192;23.284;2022-08-19T01:03:25;3.97;;;3.10;;
10347;SDS011;5220;43.192;23.284;2022-08-19T01:05:52;3.80;;;3.50;;
10347;SDS011;5220;43.192;23.284;2022-08-19T01:11:42;3.85;;;3.47;;
10347;SDS011;5220;43.192;23.284;2022-08-19T01:14:12;4.03;;;3.58;;
10347;SDS011;5220;43.192;23.284;2022-08-19T01:16:40;5.95;;;4.05;;
10347;SDS011;5220;43.192;23.284;2022-08-19T01:19:09;4.88;;;4.10;;
10347;SDS011;5220;43.192;23.284;2022-08-19T01:21:46;5.40;;;3.40;;
10347;SDS011;5220;43.192;23.284;2022-08-19T01:24:23;3.88;;;3.50;;
10347;SDS011;5220;43.192;23.284;2022-08-19T01:26:50;3.70;;;3.33;;
10347;SDS011;5220;43.192;23.284;2022-08-19T01:29:18;5.50;;;3.80;;
10347;SDS011;5220;43.192;23.284;2022-08-19T01:31:44;4.07;;;3.78;;
10347;SDS011;5220;43.192;23.284;2022-08-19T01:34:11;7.53;;;3.85;;
10347;SDS011;5220;43.192;23.284;2022-08-19T01:36:40;4.43;;;4.03;;
10347;SDS011;5220;43.192;23.284;2022-08-19T01:42:33;4.80;;;3.67;;
10347;SDS011;5220;43.192;23.284;2022-08-19T01:45:00;8.25;;;4.55;;
10347;SDS011;5220;43.192;23.284;2022-08-19T01:47:27;5.35;;;3.50;;
10347;SDS011;5220;43.192;23.284;2022-08-19T01:53:18;5.65;;;3.55;;
10347;SDS011;5220;43.192;23.284;2022-08-19T01:55:44;5.82;;;3.97;;
10347;SDS011;5220;43.192;23.284;2022-08-19T01:58:14;4.05;;;3.65;;
10347;SDS011;5220;43.192;23.284;2022-08-19T02:00:43;3.95;;;3.65;;
10347;SDS011;5220;43.192;23.284;2022-08-19T02:03:11;6.38;;;4.13;;
10347;SDS011;5220;43.192;23.284;2022-08-19T02:05:38;3.65;;;3.35;;
10347;SDS011;5220;43.192;23.284;2022-08-19T02:08:06;4.20;;;3.80;;
10347;SDS011;5220;43.192;23.284;2022-08-19T02:10:33;4.28;;;3.65;;
10347;SDS011;5220;43.192;23.284;2022-08-19T02:13:06;3.95;;;3.50;;
10347;SDS011;5220;43.192;23.284;2022-08-19T02:15:34;4.25;;;3.45;;
10347;SDS011;5220;43.192;23.284;2022-08-19T02:18:01;4.35;;;3.55;;
10347;SDS011;5220;43.192;23.284;2022-08-19T02:20:28;5.03;;;3.85;;
10347;SDS011;5220;43.192;23.284;2022-08-19T02:22:56;4.78;;;3.65;;
10347;SDS011;5220;43.192;23.284;2022-08-19T02:25:22;4.30;;;3.70;;
10347;SDS011;5220;43.192;23.284;2022-08-19T02:27:49;4.38;;;3.83;;
10347;SDS011;5220;43.192;23.284;2022-08-19T02:30:16;4.70;;;3.45;;
10347;SDS011;5220;43.192;23.284;2022-08-19T02:32:45;5.30;;;4.15;;
10347;SDS011;5220;43.192;23.284;2022-08-19T02:35:12;5.88;;;3.72;;
10347;SDS011;5220;43.192;23.284;2022-08-19T02:37:40;3.92;;;3.63;;
10347;SDS011;5220;43.192;23.284;2022-08-19T02:43:18;4.35;;;3.95;;
10347;SDS011;5220;43.192;23.284;2022-08-19T02:45:46;5.35;;;3.35;;
10347;SDS011;5220;43.192;23.284;2022-08-19T02:48:16;5.32;;;3.97;;
10347;SDS011;5220;43.192;23.284;2022-08-19T02:50:44;6.22;;;4.10;;
10347;SDS011;5220;43.192;23.284;2022-08-19T02:53:13;4.47;;;3.40;;
10347;SDS011;5220;43.192;23.284;2022-08-19T02:55:43;4.35;;;3.90;;
10347;SDS011;5220;43.192;23.284;2022-08-19T02:58:11;3.78;;;3.47;;
10347;SDS011;5220;43.192;23.284;2022-08-19T03:00:43;5.95;;;3.90;;
10347;SDS011;5220;43.192;23.284;2022-08-19T03:03:11;4.70;;;3.67;;
10347;SDS011;5220;43.192;23.284;2022-08-19T03:05:39;5.20;;;3.97;;
10347;SDS011;5220;43.192;23.284;2022-08-19T03:08:06;6.18;;;3.90;;
10347;SDS011;5220;43.192;23.284;2022-08-19T03:10:40;4.75;;;3.75;;
10347;SDS011;5220;43.192;23.284;2022-08-19T03:13:10;4.18;;;3.70;;
10347;SDS011;5220;43.192;23.284;2022-08-19T03:15:39;7.55;;;3.72;;
10347;SDS011;5220;43.192;23.284;2022-08-19T03:18:06;4.78;;;3.70;;
10347;SDS011;5220;43.192;23.284;2022-08-19T03:20:33;4.50;;;3.67;;
10347;SDS011;5220;43.192;23.284;2022-08-19T03:23:01;5.82;;;3.58;;
10347;SDS011;5220;43.192;23.284;2022-08-19T03:25:28;6.10;;;4.03;;
10347;SDS011;5220;43.192;23.284;2022-08-19T03:27:55;4.63;;;4.15;;
10347;SDS011;5220;43.192;23.284;2022-08-19T03:30:24;4.88;;;3.63;;
10347;SDS011;5220;43.192;23.284;2022-08-19T03:32:51;4.50;;;4.10;;
10347;SDS011;5220;43.192;23.284;2022-08-19T03:35:19;4.57;;;3.65;;
10347;SDS011;5220;43.192;23.284;2022-08-19T03:37:46;6.10;;;3.70;;
10347;SDS011;5220;43.192;23.284;2022-08-19T03:40:14;4.20;;;3.83;;
10347;SDS011;5220;43.192;23.284;2022-08-19T03:42:44;4.32;;;3.83;;
10347;SDS011;5220;43.192;23.284;2022-08-19T03:45:11;5.22;;;3.65;;
10347;SDS011;5220;43.192;23.284;2022-08-19T03:47:39;9.98;;;3.75;;
10347;SDS011;5220;43.192;23.284;2022-08-19T03:50:08;4.20;;;3.80;;
10347;SDS011;5220;43.192;23.284;2022-08-19T03:52:41;4.45;;;4.05;;
10347;SDS011;5220;43.192;23.284;2022-08-19T03:55:10;5.50;;;3.45;;
10347;SDS011;5220;43.192;23.284;2022-08-19T03:57:39;4.00;;;3.63;;
10347;SDS011;5220;43.192;23.284;2022-08-19T04:00:06;4.63;;;3.97;;
10347;SDS011;5220;43.192;23.284;2022-08-19T04:02:37;7.93;;;3.95;;
10347;SDS011;5220;43.192;23.284;2022-08-19T04:05:04;6.38;;;3.53;;
10347;SDS011;5220;43.192;23.284;2022-08-19T04:07:33;5.80;;;3.65;;
10347;SDS011;5220;43.192;23.284;2022-08-19T04:13:23;7.03;;;3.83;;
10347;SDS011;5220;43.192;23.284;2022-08-19T04:15:50;4.13;;;3.72;;
10347;SDS011;5220;43.192;23.284;2022-08-19T04:21:26;8.40;;;4.00;;
10347;SDS011;5220;43.192;23.284;2022-08-19T04:23:54;5.57;;;3.85;;
10347;SDS011;5220;43.192;23.284;2022-08-19T04:26:23;6.95;;;3.35;;
10347;SDS011;5220;43.192;23.284;2022-08-19T04:28:54;4.93;;;3.55;;
10347;SDS011;5220;43.192;23.284;2022-08-19T04:31:23;5.00;;;3.50;;
10347;SDS011;5220;43.192;23.284;2022-08-19T04:33:57;5.25;;;3.58;;
10347;SDS011;5220;43.192;23.284;2022-08-19T04:36:27;5.28;;;3.83;;
10347;SDS011;5220;43.192;23.284;2022-08-19T04:42:17;7.03;;;3.72;;
10347;SDS011;5220;43.192;23.284;2022-08-19T04:45:04;5.93;;;3.72;;
10347;SDS011;5220;43.192;23.284;2022-08-19T04:47:31;5.15;;;3.80;;
10347;SDS011;5220;43.192;23.284;2022-08-19T04:52:58;7.80;;;4.40;;
10347;SDS011;5220;43.192;23.284;2022-08-19T04:55:25;4.40;;;4.00;;
10347;SDS011;5220;43.192;23.284;2022-08-19T04:57:52;4.32;;;3.80;;
10347;SDS011;5220;43.192;23.284;2022-08-19T05:00:20;7.93;;;4.30;;
10347;SDS011;5220;43.192;23.284;2022-08-19T05:02:47;6.53;;;4.20;;
10347;SDS011;5220;43.192;23.284;2022-08-19T05:05:14;11.70;;;4.10;;
10347;SDS011;5220;43.192;23.284;2022-08-19T05:07:41;6.70;;;4.10;;
10347;SDS011;5220;43.192;23.284;2022-08-19T05:10:08;7.35;;;4.53;;
10347;SDS011;5220;43.192;23.284;2022-08-19T05:12:35;7.68;;;4.93;;
10347;SDS011;5220;43.192;23.284;2022-08-19T05:15:03;4.82;;;4.22;;
10347;SDS011;5220;43.192;23.284;2022-08-19T05:17:34;6.93;;;4.53;;
10347;SDS011;5220;43.192;23.284;2022-08-19T05:20:01;4.82;;;4.32;;
10347;SDS011;5220;43.192;23.284;2022-08-19T05:22:47;12.10;;;5.57;;
10347;SDS011;5220;43.192;23.284;2022-08-19T05:25:15;7.50;;;4.57;;
10347;SDS011;5220;43.192;23.284;2022-08-19T05:27:44;4.47;;;4.07;;
10347;SDS011;5220;43.192;23.284;2022-08-19T05:30:12;5.05;;;4.28;;
10347;SDS011;5220;43.192;23.284;2022-08-19T05:32:40;4.47;;;4.18;;
10347;SDS011;5220;43.192;23.284;2022-08-19T05:35:07;4.45;;;4.05;;
10347;SDS011;5220;43.192;23.284;2022-08-19T05:37:39;6.00;;;4.85;;
10347;SDS011;5220;43.192;23.284;2022-08-19T05:40:08;8.18;;;4.88;;
10347;SDS011;5220;43.192;23.284;2022-08-19T05:42:35;9.30;;;6.22;;
10347;SDS011;5220;43.192;23.284;2022-08-19T05:45:02;11.85;;;8.00;;
10347;SDS011;5220;43.192;23.284;2022-08-19T05:47:30;13.18;;;8.90;;
10347;SDS011;5220;43.192;23.284;2022-08-19T05:50:14;9.27;;;6.55;;
10347;SDS011;5220;43.192;23.284;2022-08-19T05:52:42;12.38;;;8.75;;
10347;SDS011;5220;43.192;23.284;2022-08-19T05:55:10;9.90;;;7.45;;
10347;SDS011;5220;43.192;23.284;2022-08-19T05:57:37;9.52;;;6.75;;
10347;SDS011;5220;43.192;23.284;2022-08-19T06:00:05;10.38;;;6.22;;
10347;SDS011;5220;43.192;23.284;2022-08-19T06:02:35;9.40;;;5.95;;
10347;SDS011;5220;43.192;23.284;2022-08-19T06:05:12;9.38;;;5.63;;
10347;SDS011;5220;43.192;23.284;2022-08-19T06:07:40;7.07;;;4.82;;
10347;SDS011;5220;43.192;23.284;2022-08-19T06:10:16;6.93;;;5.90;;
10347;SDS011;5220;43.192;23.284;2022-08-19T06:12:42;6.30;;;5.38;;
10347;SDS011;5220;43.192;23.284;2022-08-19T06:15:10;7.80;;;4.90;;
10347;SDS011;5220;43.192;23.284;2022-08-19T06:17:39;5.00;;;4.60;;
10347;SDS011;5220;43.192;23.284;2022-08-19T06:20:07;6.13;;;4.53;;
10347;SDS011;5220;43.192;23.284;2022-08-19T06:22:39;5.38;;;4.90;;
10347;SDS011;5220;43.192;23.284;2022-08-19T06:25:07;5.53;;;4.97;;
10347;SDS011;5220;43.192;23.284;2022-08-19T06:27:35;5.40;;;4.50;;
10347;SDS011;5220;43.192;23.284;2022-08-19T06:30:02;5.72;;;4.63;;
10347;SDS011;5220;43.192;23.284;2022-08-19T06:32:31;5.00;;;4.22;;
10347;SDS011;5220;43.192;23.284;2022-08-19T06:34:58;6.43;;;5.15;;
10347;SDS011;5220;43.192;23.284;2022-08-19T06:37:27;10.30;;;5.22;;
10347;SDS011;5220;43.192;23.284;2022-08-19T06:40:04;7.70;;;4.70;;
10347;SDS011;5220;43.192;23.284;2022-08-19T06:42:33;5.60;;;5.10;;
10347;SDS011;5220;43.192;23.284;2022-08-19T06:45:05;7.68;;;5.80;;
10347;SDS011;5220;43.192;23.284;2022-08-19T06:47:35;8.23;;;5.40;;
10347;SDS011;5220;43.192;23.284;2022-08-19T06:50:02;6.32;;;5.25;;
10347;SDS011;5220;43.192;23.284;2022-08-19T06:52:30;36.97;;;9.88;;
10347;SDS011;5220;43.192;23.284;2022-08-19T06:54:57;14.25;;;6.25;;
10347;SDS011;5220;43.192;23.284;2022-08-19T06:57:26;8.43;;;5.50;;
10347;SDS011;5220;43.192;23.284;2022-08-19T06:59:56;8.95;;;5.55;;
10347;SDS011;5220;43.192;23.284;2022-08-19T07:02:22;7.68;;;4.95;;
10347;SDS011;5220;43.192;23.284;2022-08-19T07:04:51;9.00;;;4.93;;
10347;SDS011;5220;43.192;23.284;2022-08-19T07:07:18;6.25;;;5.63;;
10347;SDS011;5220;43.192;23.284;2022-08-19T07:09:49;8.02;;;5.45;;
10347;SDS011;5220;43.192;23.284;2022-08-19T07:12:18;10.00;;;5.60;;
10347;SDS011;5220;43.192;23.284;2022-08-19T07:14:46;7.30;;;6.30;;
10347;SDS011;5220;43.192;23.284;2022-08-19T07:17:14;14.75;;;6.10;;
10347;SDS011;5220;43.192;23.284;2022-08-19T07:19:41;8.00;;;5.07;;
10347;SDS011;5220;43.192;23.284;2022-08-19T07:22:08;7.60;;;4.53;;
10347;SDS011;5220;43.192;23.284;2022-08-19T07:24:35;9.77;;;4.88;;
10347;SDS011;5220;43.192;23.284;2022-08-19T07:27:04;7.18;;;4.32;;
10347;SDS011;5220;43.192;23.284;2022-08-19T07:29:47;12.65;;;5.00;;
10347;SDS011;5220;43.192;23.284;2022-08-19T07:32:13;5.22;;;4.57;;
10347;SDS011;5220;43.192;23.284;2022-08-19T07:34:40;4.82;;;4.40;;
10347;SDS011;5220;43.192;23.284;2022-08-19T07:37:07;4.45;;;4.00;;
10347;SDS011;5220;43.192;23.284;2022-08-19T07:39:40;4.75;;;4.28;;
10347;SDS011;5220;43.192;23.284;2022-08-19T07:42:08;11.13;;;4.65;;
10347;SDS011;5220;43.192;23.284;2022-08-19T07:44:36;4.95;;;4.55;;
10347;SDS011;5220;43.192;23.284;2022-08-19T07:47:05;9.15;;;5.80;;
10347;SDS011;5220;43.192;23.284;2022-08-19T07:49:32;4.97;;;4.22;;
10347;SDS011;5220;43.192;23.284;2022-08-19T07:52:01;8.40;;;4.68;;
10347;SDS011;5220;43.192;23.284;2022-08-19T07:54:33;5.65;;;4.47;;
10347;SDS011;5220;43.192;23.284;2022-08-19T07:57:05;5.28;;;4.30;;
10347;SDS011;5220;43.192;23.284;2022-08-19T07:59:33;6.07;;;3.90;;
10347;SDS011;5220;43.192;23.284;2022-08-19T08:02:00;5.45;;;3.67;;
10347;SDS011;5220;43.192;23.284;2022-08-19T08:04:29;4.22;;;3.80;;
10347;SDS011;5220;43.192;23.284;2022-08-19T08:07:13;7.47;;;4.47;;
10347;SDS011;5220;43.192;23.284;2022-08-19T08:09:58;4.47;;;4.00;;
10347;SDS011;5220;43.192;23.284;2022-08-19T08:12:26;4.80;;;3.40;;
10347;SDS011;5220;43.192;23.284;2022-08-19T08:14:56;4.38;;;3.97;;
10347;SDS011;5220;43.192;23.284;2022-08-19T08:17:27;7.03;;;4.90;;
10347;SDS011;5220;43.192;23.284;2022-08-19T08:19:58;4.65;;;4.22;;
10347;SDS011;5220;43.192;23.284;2022-08-19T08:22:25;5.13;;;4.65;;
10347;SDS011;5220;43.192;23.284;2022-08-19T08:25:10;9.10;;;5.85;;
10347;SDS011;5220;43.192;23.284;2022-08-19T08:27:39;5.32;;;4.82;;
10347;SDS011;5220;43.192;23.284;2022-08-19T08:30:07;4.30;;;4.00;;
10347;SDS011;5220;43.192;23.284;2022-08-19T08:32:35;5.57;;;4.70;;
10347;SDS011;5220;43.192;23.284;2022-08-19T08:35:04;4.80;;;4.20;;
10347;SDS011;5220;43.192;23.284;2022-08-19T08:37:32;6.40;;;4.28;;
10347;SDS011;5220;43.192;23.284;2022-08-19T08:40:02;4.85;;;4.47;;
10347;SDS011;5220;43.192;23.284;2022-08-19T08:42:32;6.30;;;4.93;;
10347;SDS011;5220;43.192;23.284;2022-08-19T08:45:03;5.35;;;4.85;;
10347;SDS011;5220;43.192;23.284;2022-08-19T08:47:41;12.57;;;7.57;;
10347;SDS011;5220;43.192;23.284;2022-08-19T08:50:15;6.88;;;4.28;;
10347;SDS011;5220;43.192;23.284;2022-08-19T08:52:47;4.60;;;4.20;;
10347;SDS011;5220;43.192;23.284;2022-08-19T08:55:17;9.35;;;4.68;;
10347;SDS011;5220;43.192;23.284;2022-08-19T08:57:49;4.40;;;4.00;;
10347;SDS011;5220;43.192;23.284;2022-08-19T09:00:21;8.18;;;4.90;;
10347;SDS011;5220;43.192;23.284;2022-08-19T09:02:52;5.32;;;4.80;;
10347;SDS011;5220;43.192;23.284;2022-08-19T09:05:21;4.65;;;4.10;;
10347;SDS011;5220;43.192;23.284;2022-08-19T09:07:53;4.10;;;3.70;;
10347;SDS011;5220;43.192;23.284;2022-08-19T09:10:28;4.60;;;4.20;;
10347;SDS011;5220;43.192;23.284;2022-08-19T09:13:00;6.90;;;4.50;;
10347;SDS011;5220;43.192;23.284;2022-08-19T09:15:34;4.85;;;4.40;;
10347;SDS011;5220;43.192;23.284;2022-08-19T09:18:05;7.90;;;4.25;;
10347;SDS011;5220;43.192;23.284;2022-08-19T09:20:33;4.60;;;3.60;;
10347;SDS011;5220;43.192;23.284;2022-08-19T09:23:00;4.25;;;3.85;;
10347;SDS011;5220;43.192;23.284;2022-08-19T09:25:26;6.38;;;4.43;;
10347;SDS011;5220;43.192;23.284;2022-08-19T09:27:54;7.03;;;4.95;;
10347;SDS011;5220;43.192;23.284;2022-08-19T09:30:22;5.22;;;4.32;;
10347;SDS011;5220;43.192;23.284;2022-08-19T09:32:51;4.40;;;4.00;;
10347;SDS011;5220;43.192;23.284;2022-08-19T09:35:19;6.47;;;4.05;;
10347;SDS011;5220;43.192;23.284;2022-08-19T09:37:49;5.30;;;4.60;;
10347;SDS011;5220;43.192;23.284;2022-08-19T09:40:16;4.50;;;3.85;;
10347;SDS011;5220;43.192;23.284;2022-08-19T09:42:44;10.65;;;4.70;;
10347;SDS011;5220;43.192;23.284;2022-08-19T09:45:12;4.30;;;3.90;;
10347;SDS011;5220;43.192;23.284;2022-08-19T09:47:40;5.15;;;4.38;;
10347;SDS011;5220;43.192;23.284;2022-08-19T09:50:08;5.65;;;4.53;;
10347;SDS011;5220;43.192;23.284;2022-08-19T09:52:37;5.68;;;4.50;;
10347;SDS011;5220;43.192;23.284;2022-08-19T09:55:06;5.78;;;4.05;;
10347;SDS011;5220;43.192;23.284;2022-08-19T09:57:34;5.72;;;4.28;;
10347;SDS011;5220;43.192;23.284;2022-08-19T10:00:02;8.60;;;4.80;;
10347;SDS011;5220;43.192;23.284;2022-08-19T10:02:30;5.90;;;4.00;;
10347;SDS011;5220;43.192;23.284;2022-08-19T10:04:57;5.25;;;4.75;;
10347;SDS011;5220;43.192;23.284;2022-08-19T10:07:42;5.30;;;4.90;;
10347;SDS011;5220;43.192;23.284;2022-08-19T10:10:10;4.97;;;4.38;;
10347;SDS011;5220;43.192;23.284;2022-08-19T10:12:37;7.75;;;4.30;;
10347;SDS011;5220;43.192;23.284;2022-08-19T10:15:04;6.85;;;4.20;;
10347;SDS011;5220;43.192;23.284;2022-08-19T10:17:32;7.43;;;4.47;;
10347;SDS011;5220;43.192;23.284;2022-08-19T10:20:00;4.47;;;4.07;;
10347;SDS011;5220;43.192;23.284;2022-08-19T10:22:29;7.68;;;6.15;;
10347;SDS011;5220;43.192;23.284;2022-08-19T10:24:56;6.05;;;4.13;;
10347;SDS011;5220;43.192;23.284;2022-08-19T10:27:24;7.85;;;4.88;;
10347;SDS011;5220;43.192;23.284;2022-08-19T10:29:52;7.50;;;4.88;;
10347;SDS011;5220;43.192;23.284;2022-08-19T10:32:18;6.60;;;4.45;;
10347;SDS011;5220;43.192;23.284;2022-08-19T10:34:46;4.65;;;4.22;;
10347;SDS011;5220;43.192;23.284;2022-08-19T10:37:14;9.75;;;4.80;;
10347;SDS011;5220;43.192;23.284;2022-08-19T10:39:42;4.38;;;3.97;;
10347;SDS011;5220;43.192;23.284;2022-08-19T10:42:13;25.25;;;6.07;;
10347;SDS011;5220;43.192;23.284;2022-08-19T10:44:42;7.07;;;5.22;;
10347;SDS011;5220;43.192;23.284;2022-08-19T10:47:09;6.03;;;5.40;;
10347;SDS011;5220;43.192;23.284;2022-08-19T10:49:36;4.80;;;4.13;;
10347;SDS011;5220;43.192;23.284;2022-08-19T10:52:23;7.68;;;5.28;;
10347;SDS011;5220;43.192;23.284;2022-08-19T10:55:03;4.95;;;4.45;;
10347;SDS011;5220;43.192;23.284;2022-08-19T10:57:48;9.32;;;7.90;;
10347;SDS011;5220;43.192;23.284;2022-08-19T11:00:18;7.10;;;4.43;;
10347;SDS011;5220;43.192;23.284;2022-08-19T11:02:45;8.38;;;5.50;;
10347;SDS011;5220;43.192;23.284;2022-08-19T11:05:12;8.48;;;5.25;;
10347;SDS011;5220;43.192;23.284;2022-08-19T11:07:39;6.03;;;5.25;;
10347;SDS011;5220;43.192;23.284;2022-08-19T11:10:08;6.07;;;4.07;;
10347;SDS011;5220;43.192;23.284;2022-08-19T11:12:36;4.75;;;4.35;;
10347;SDS011;5220;43.192;23.284;2022-08-19T11:15:05;6.93;;;4.28;;
10347;SDS011;5220;43.192;23.284;2022-08-19T11:17:37;7.00;;;4.13;;
10347;SDS011;5220;43.192;23.284;2022-08-19T11:20:08;4.75;;;4.07;;
10347;SDS011;5220;43.192;23.284;2022-08-19T11:22:36;4.40;;;3.60;;
10347;SDS011;5220;43.192;23.284;2022-08-19T11:25:03;4.63;;;3.53;;
10347;SDS011;5220;43.192;23.284;2022-08-19T11:27:30;4.88;;;4.18;;
10347;SDS011;5220;43.192;23.284;2022-08-19T11:29:58;7.47;;;3.70;;
10347;SDS011;5220;43.192;23.284;2022-08-19T11:32:25;8.13;;;4.30;;
10347;SDS011;5220;43.192;23.284;2022-08-19T11:34:54;5.05;;;3.83;;
10347;SDS011;5220;43.192;23.284;2022-08-19T11:37:20;5.88;;;4.10;;
10347;SDS011;5220;43.192;23.284;2022-08-19T11:39:49;4.80;;;3.42;;
10347;SDS011;5220;43.192;23.284;2022-08-19T11:42:16;5.20;;;3.53;;
10347;SDS011;5220;43.192;23.284;2022-08-19T11:45:01;5.07;;;3.72;;
10347;SDS011;5220;43.192;23.284;2022-08-19T11:47:29;5.63;;;3.88;;
10347;SDS011;5220;43.192;23.284;2022-08-19T11:49:58;5.32;;;3.78;;
10347;SDS011;5220;43.192;23.284;2022-08-19T11:52:24;4.60;;;3.65;;
10347;SDS011;5220;43.192;23.284;2022-08-19T11:54:51;7.40;;;4.18;;
10347;SDS011;5220;43.192;23.284;2022-08-19T11:57:18;8.18;;;3.70;;
10347;SDS011;5220;43.192;23.284;2022-08-19T11:59:49;5.55;;;4.03;;
10347;SDS011;5220;43.192;23.284;2022-08-19T12:02:24;6.03;;;3.97;;
10347;SDS011;5220;43.192;23.284;2022-08-19T12:04:50;8.38;;;4.63;;
10347;SDS011;5220;43.192;23.284;2022-08-19T12:07:18;7.38;;;4.47;;
10347;SDS011;5220;43.192;23.284;2022-08-19T12:09:47;7.40;;;4.32;;
10347;SDS011;5220;43.192;23.284;2022-08-19T12:12:14;5.25;;;4.18;;
10347;SDS011;5220;43.192;23.284;2022-08-19T12:14:41;7.32;;;3.95;;
10347;SDS011;5220;43.192;23.284;2022-08-19T12:17:08;5.22;;;4.05;;
10347;SDS011;5220;43.192;23.284;2022-08-19T12:19:36;6.97;;;4.22;;
10347;SDS011;5220;43.192;23.284;2022-08-19T12:22:04;10.35;;;4.25;;
10347;SDS011;5220;43.192;23.284;2022-08-19T12:24:33;6.40;;;4.20;;
10347;SDS011;5220;43.192;23.284;2022-08-19T12:27:00;6.97;;;3.92;;
10347;SDS011;5220;43.192;23.284;2022-08-19T12:32:22;6.10;;;4.22;;
10347;SDS011;5220;43.192;23.284;2022-08-19T12:34:49;14.63;;;4.93;;
10347;SDS011;5220;43.192;23.284;2022-08-19T12:37:16;9.50;;;4.25;;
10347;SDS011;5220;43.192;23.284;2022-08-19T12:39:55;4.80;;;4.22;;
10347;SDS011;5220;43.192;23.284;2022-08-19T12:42:22;9.20;;;4.20;;
10347;SDS011;5220;43.192;23.284;2022-08-19T12:44:49;9.82;;;4.38;;
10347;SDS011;5220;43.192;23.284;2022-08-19T12:47:17;11.95;;;4.78;;
10347;SDS011;5220;43.192;23.284;2022-08-19T12:49:45;5.72;;;4.57;;
10347;SDS011;5220;43.192;23.284;2022-08-19T12:52:12;7.45;;;4.35;;
10347;SDS011;5220;43.192;23.284;2022-08-19T12:54:41;8.63;;;4.10;;
10347;SDS011;5220;43.192;23.284;2022-08-19T12:57:10;4.88;;;4.35;;
10347;SDS011;5220;43.192;23.284;2022-08-19T13:03:07;5.70;;;3.88;;
10347;SDS011;5220;43.192;23.284;2022-08-19T13:05:33;8.27;;;4.10;;
10347;SDS011;5220;43.192;23.284;2022-08-19T13:08:00;7.43;;;4.38;;
10347;SDS011;5220;43.192;23.284;2022-08-19T13:10:28;7.95;;;4.25;;
10347;SDS011;5220;43.192;23.284;2022-08-19T13:12:58;5.63;;;4.95;;
10347;SDS011;5220;43.192;23.284;2022-08-19T13:15:25;4.75;;;4.20;;
10347;SDS011;5220;43.192;23.284;2022-08-19T13:17:53;5.78;;;3.70;;
10347;SDS011;5220;43.192;23.284;2022-08-19T13:20:21;7.65;;;5.22;;
10347;SDS011;5220;43.192;23.284;2022-08-19T13:22:48;9.60;;;5.90;;
10347;SDS011;5220;43.192;23.284;2022-08-19T13:25:16;13.30;;;6.20;;
10347;SDS011;5220;43.192;23.284;2022-08-19T13:27:45;10.95;;;5.28;;
10347;SDS011;5220;43.192;23.284;2022-08-19T13:30:14;5.35;;;4.50;;
10347;SDS011;5220;43.192;23.284;2022-08-19T13:32:59;4.75;;;4.13;;
10347;SDS011;5220;43.192;23.284;2022-08-19T13:35:41;4.85;;;4.15;;
10347;SDS011;5220;43.192;23.284;2022-08-19T13:38:11;6.10;;;4.45;;
10347;SDS011;5220;43.192;23.284;2022-08-19T13:40:39;6.50;;;4.57;;
10347;SDS011;5220;43.192;23.284;2022-08-19T13:43:07;11.05;;;5.00;;
10347;SDS011;5220;43.192;23.284;2022-08-19T13:45:36;5.75;;;4.35;;
10347;SDS011;5220;43.192;23.284;2022-08-19T13:48:03;7.47;;;4.13;;
10347;SDS011;5220;43.192;23.284;2022-08-19T13:50:34;5.78;;;4.50;;
10347;SDS011;5220;43.192;23.284;2022-08-19T13:53:05;5.40;;;4.25;;
10347;SDS011;5220;43.192;23.284;2022-08-19T13:55:33;9.27;;;5.30;;
10347;SDS011;5220;43.192;23.284;2022-08-19T13:58:01;7.78;;;4.63;;
10347;SDS011;5220;43.192;23.284;2022-08-19T14:00:29;5.93;;;4.75;;
10347;SDS011;5220;43.192;23.284;2022-08-19T14:02:59;9.15;;;4.97;;
10347;SDS011;5220;43.192;23.284;2022-08-19T14:05:26;5.35;;;4.43;;
10347;SDS011;5220;43.192;23.284;2022-08-19T14:07:54;6.55;;;4.50;;
10347;SDS011;5220;43.192;23.284;2022-08-19T14:10:22;8.18;;;5.00;;
10347;SDS011;5220;43.192;23.284;2022-08-19T14:12:51;6.68;;;4.55;;
10347;SDS011;5220;43.192;23.284;2022-08-19T14:15:20;4.68;;;4.22;;
10347;SDS011;5220;43.192;23.284;2022-08-19T14:17:48;5.68;;;4.63;;
10347;SDS011;5220;43.192;23.284;2022-08-19T14:20:16;6.55;;;4.47;;
10347;SDS011;5220;43.192;23.284;2022-08-19T14:22:44;9.82;;;4.32;;
10347;SDS011;5220;43.192;23.284;2022-08-19T14:25:12;5.30;;;4.32;;
10347;SDS011;5220;43.192;23.284;2022-08-19T14:27:40;7.78;;;4.90;;
10347;SDS011;5220;43.192;23.284;2022-08-19T14:30:09;6.75;;;4.20;;
10347;SDS011;5220;43.192;23.284;2022-08-19T14:32:39;7.10;;;4.60;;
10347;SDS011;5220;43.192;23.284;2022-08-19T14:35:09;6.43;;;4.45;;
10347;SDS011;5220;43.192;23.284;2022-08-19T14:37:39;6.55;;;5.05;;
10347;SDS011;5220;43.192;23.284;2022-08-19T14:43:27;7.82;;;5.80;;
10347;SDS011;5220;43.192;23.284;2022-08-19T14:45:54;12.20;;;6.88;;
10347;SDS011;5220;43.192;23.284;2022-08-19T14:48:21;5.65;;;5.07;;
10347;SDS011;5220;43.192;23.284;2022-08-19T14:50:48;12.50;;;5.22;;
10347;SDS011;5220;43.192;23.284;2022-08-19T14:53:16;9.20;;;5.40;;
10347;SDS011;5220;43.192;23.284;2022-08-19T14:55:43;13.15;;;5.07;;
10347;SDS011;5220;43.192;23.284;2022-08-19T14:58:12;10.50;;;5.20;;
10347;SDS011;5220;43.192;23.284;2022-08-19T15:00:47;7.97;;;4.60;;
10347;SDS011;5220;43.192;23.284;2022-08-19T15:03:13;8.35;;;4.40;;
10347;SDS011;5220;43.192;23.284;2022-08-19T15:05:40;7.50;;;4.55;;
10347;SDS011;5220;43.192;23.284;2022-08-19T15:08:07;7.05;;;4.72;;
10347;SDS011;5220;43.192;23.284;2022-08-19T15:10:37;6.43;;;4.43;;
10347;SDS011;5220;43.192;23.284;2022-08-19T15:13:04;8.02;;;4.80;;
10347;SDS011;5220;43.192;23.284;2022-08-19T15:15:32;7.43;;;4.40;;
10347;SDS011;5220;43.192;23.284;2022-08-19T15:18:00;7.75;;;4.30;;
10347;SDS011;5220;43.192;23.284;2022-08-19T15:20:27;10.50;;;4.90;;
10347;SDS011;5220;43.192;23.284;2022-08-19T15:22:55;10.50;;;4.28;;
10347;SDS011;5220;43.192;23.284;2022-08-19T15:25:29;5.45;;;4.90;;
10347;SDS011;5220;43.192;23.284;2022-08-19T15:28:01;8.10;;;4.65;;
10347;SDS011;5220;43.192;23.284;2022-08-19T15:30:29;7.40;;;5.15;;
10347;SDS011;5220;43.192;23.284;2022-08-19T15:32:57;6.72;;;4.30;;
10347;SDS011;5220;43.192;23.284;2022-08-19T15:35:26;11.55;;;4.20;;